Station History

Weather Underground - logo

Station Historical Data
Daily Summary for October 8, 2017 Units:  English    Metric   Both
« Previous Day
Next Day »
Daily Weekly Monthly Yearly Custom
  High: Low: Average:
Temperature: TemperatureF °F 50.3 °F 65.6 °F
Dew Point: DewpointF °F 45.6 °F 48.9 °F
Humidity: Humidity % 30 % 60 %
Wind Speed: WindSpeedMPH mph 0.0 mph 1 mph
Wind Gust: WindSpeedGustMPH mph - -
Wind:- - West
Pressure: PressureIn in 29.68 in -
Precipitation: 0.00 in    
Historical Graphs
 
 
Tabular Data for October 8, 2017
Time Temperature Dew Point Pressure Wind Wind Speed Wind Gust Humidity Rainfall Rate (Hourly)
TemperatureF °F DewpointF °F PressureIn in Calm     Humidity % HourlyPrecipIn in
00:02 57.4 °F 49.5 °F 29.76 in Calm     75 % 0.00 in
00:07 57.1 °F 49.6 °F 29.76 in Calm     76 % 0.00 in
00:12 56.8 °F 49.7 °F 29.76 in Calm     77 % 0.00 in
00:17 56.5 °F 49.7 °F 29.76 in Calm     78 % 0.00 in
00:22 56.2 °F 49.8 °F 29.75 in Calm     79 % 0.00 in
00:27 56.1 °F 50.0 °F 29.75 in Calm     80 % 0.00 in
00:32 56.0 °F 49.9 °F 29.75 in Calm     80 % 0.00 in
00:37 55.9 °F 49.8 °F 29.75 in Calm     80 % 0.00 in
00:47 55.6 °F 49.9 °F 29.75 in Calm     81 % 0.00 in
00:52 55.4 °F 49.7 °F 29.75 in Calm     81 % 0.00 in
00:57 55.1 °F 49.0 °F 29.75 in Calm     80 % 0.00 in
01:02 54.8 °F 48.1 °F 29.75 in Calm     78 % 0.00 in
01:07 54.6 °F 48.6 °F 29.75 in Calm     80 % 0.00 in
01:12 54.5 °F 48.1 °F 29.75 in Calm     79 % 0.00 in
01:17 54.4 °F 48.7 °F 29.75 in Calm     81 % 0.00 in
01:22 54.3 °F 49.2 °F 29.75 in Calm     83 % 0.00 in
01:28 54.3 °F 48.9 °F 29.74 in Calm     82 % 0.00 in
01:33 54.1 °F 48.4 °F 29.74 in Calm     81 % 0.00 in
01:38 54.0 °F 48.6 °F 29.74 in Calm     82 % 0.00 in
01:43 53.9 °F 48.9 °F 29.74 in Calm     83 % 0.00 in
01:48 53.8 °F 48.8 °F 29.75 in Calm     83 % 0.00 in
01:53 53.7 °F 48.7 °F 29.75 in Calm     83 % 0.00 in
01:58 53.5 °F 48.5 °F 29.74 in Calm     83 % 0.00 in
02:03 53.4 °F 48.7 °F 29.74 in Calm     84 % 0.00 in
02:08 53.3 °F 48.3 °F 29.74 in Calm     83 % 0.00 in
02:13 53.2 °F 48.5 °F 29.74 in Calm     84 % 0.00 in
02:18 53.2 °F 48.5 °F 29.74 in Calm     84 % 0.00 in
02:23 53.1 °F 48.7 °F 29.74 in Calm     85 % 0.00 in
02:28 53.2 °F 48.8 °F 29.75 in Calm     85 % 0.00 in
02:33 53.6 °F 49.2 °F 29.74 in Calm     85 % 0.00 in
02:38 53.8 °F 49.1 °F 29.74 in Calm     84 % 0.00 in
02:43 53.8 °F 48.8 °F 29.74 in Calm     83 % 0.00 in
02:48 53.6 °F 48.9 °F 29.74 in Calm     84 % 0.00 in
02:53 53.6 °F 48.9 °F 29.74 in Calm     84 % 0.00 in
02:58 53.5 °F 48.5 °F 29.74 in Calm     83 % 0.00 in
03:08 53.1 °F 48.7 °F 29.74 in Calm     85 % 0.00 in
03:13 53.0 °F 48.6 °F 29.73 in Calm     85 % 0.00 in
03:19 53.1 °F 48.7 °F 29.73 in Calm     85 % 0.00 in
03:24 53.2 °F 48.8 °F 29.73 in Calm     85 % 0.00 in
03:29 53.3 °F 48.6 °F 29.73 in Calm     84 % 0.00 in
03:34 53.3 °F 48.6 °F 29.73 in Calm     84 % 0.00 in
03:39 53.1 °F 48.4 °F 29.73 in Calm     84 % 0.00 in
03:44 52.7 °F 47.7 °F 29.73 in Calm     83 % 0.00 in
03:46 52.6 °F 47.6 °F 29.73 in Calm     83 % 0.00 in
03:51 52.6 °F 47.3 °F 29.73 in Calm     82 % 0.00 in
03:56 52.6 °F 47.3 °F 29.73 in Calm     82 % 0.00 in
04:01 52.6 °F 47.3 °F 29.73 in Calm     82 % 0.00 in
04:06 52.5 °F 47.2 °F 29.72 in Calm     82 % 0.00 in
04:11 52.4 °F 47.1 °F 29.72 in Calm     82 % 0.00 in
04:16 52.1 °F 46.8 °F 29.72 in Calm     82 % 0.00 in
04:21 52.0 °F 46.7 °F 29.72 in Calm     82 % 0.00 in
04:26 52.2 °F 46.5 °F 29.72 in Calm     81 % 0.00 in
04:32 52.4 °F 46.4 °F 29.72 in Calm     80 % 0.00 in
04:37 52.6 °F 46.3 °F 29.72 in Calm     79 % 0.00 in
04:42 52.5 °F 47.2 °F 29.72 in Calm     82 % 0.00 in
04:59 52.6 °F 47.6 °F 29.72 in Calm     83 % 0.00 in
05:04 52.3 °F 47.0 °F 29.72 in Calm     82 % 0.00 in
05:09 51.9 °F 47.2 °F 29.72 in Calm     84 % 0.00 in
05:14 51.8 °F 47.4 °F 29.72 in Calm     85 % 0.00 in
05:19 51.5 °F 46.8 °F 29.72 in Calm     84 % 0.00 in
05:24 51.1 °F 46.7 °F 29.72 in Calm     85 % 0.00 in
05:29 51.1 °F 47.1 °F 29.72 in Calm     86 % 0.00 in
05:34 51.0 °F 47.0 °F 29.72 in Calm     86 % 0.00 in
05:39 50.9 °F 46.9 °F 29.72 in Calm     86 % 0.00 in
05:44 50.8 °F 46.8 °F 29.72 in Calm     86 % 0.00 in
05:49 51.0 °F 47.3 °F 29.73 in Calm     87 % 0.00 in
05:54 51.4 °F 47.0 °F 29.73 in Calm     85 % 0.00 in
05:59 51.2 °F 46.8 °F 29.73 in Calm     85 % 0.00 in
06:04 51.0 °F 46.6 °F 29.73 in Calm     85 % 0.00 in
06:09 51.1 °F 47.1 °F 29.73 in Calm     86 % 0.00 in
06:14 51.1 °F 46.7 °F 29.73 in Calm     85 % 0.00 in
06:19 50.8 °F 46.5 °F 29.73 in Calm     85 % 0.00 in
06:25 50.6 °F 46.3 °F 29.73 in Calm     85 % 0.00 in
06:30 50.5 °F 46.2 °F 29.73 in Calm     85 % 0.00 in
06:35 50.6 °F 46.6 °F 29.73 in Calm     86 % 0.00 in
06:40 50.5 °F 45.8 °F 29.73 in Calm     84 % 0.00 in
06:50 50.3 °F 45.6 °F 29.74 in Calm     84 % 0.00 in
06:55 50.3 °F 45.6 °F 29.73 in Calm     84 % 0.00 in
07:00 50.3 °F 46.0 °F 29.73 in Calm     85 % 0.00 in
07:05 50.4 °F 46.1 °F 29.73 in Calm     85 % 0.00 in
07:10 50.4 °F 46.1 °F 29.73 in Calm     85 % 0.00 in
07:15 50.4 °F 46.1 °F 29.73 in Calm     85 % 0.00 in
07:20 50.4 °F 45.7 °F 29.73 in Calm     84 % 0.00 in
07:25 50.4 °F 45.7 °F 29.73 in Calm     84 % 0.00 in
07:30 50.6 °F 46.3 °F 29.73 in Calm     85 % 0.00 in
07:35 51.2 °F 47.2 °F 29.73 in Calm     86 % 0.00 in
07:40 51.6 °F 47.2 °F 29.73 in Calm     85 % 0.00 in
07:45 51.8 °F 47.1 °F 29.73 in Calm     84 % 0.00 in
07:50 52.5 °F 48.1 °F 29.74 in Calm     85 % 0.00 in
07:55 52.9 °F 48.2 °F 29.74 in Calm     84 % 0.00 in
08:00 53.3 °F 47.9 °F 29.74 in Calm     82 % 0.00 in
08:05 53.9 °F 47.5 °F 29.74 in Calm     79 % 0.00 in
08:10 54.9 °F 48.5 °F 29.74 in Calm     79 % 0.00 in
08:15 55.9 °F 48.8 °F 29.74 in Calm     77 % 0.00 in
08:20 56.8 °F 48.6 °F 29.74 in Calm     74 % 0.00 in
08:25 57.8 °F 49.2 °F 29.74 in Calm     73 % 0.00 in
08:30 58.9 °F 49.1 °F 29.75 in Calm     70 % 0.00 in
08:35 59.8 °F 47.6 °F 29.75 in West 1.2 mph   64 % 0.00 in
08:40 60.7 °F 48.4 °F 29.75 in West 1.2 mph   64 % 0.00 in
08:45 61.7 °F 48.1 °F 29.75 in Calm     61 % 0.00 in
08:50 63.2 °F 48.6 °F 29.75 in Calm     59 % 0.00 in
08:55 63.9 °F 47.9 °F 29.76 in Calm     56 % 0.00 in
09:00 64.2 °F 48.2 °F 29.76 in WNW 1.2 mph   56 % 0.00 in
09:05 64.7 °F 48.2 °F 29.76 in WNW 1.2 mph   55 % 0.00 in
09:10 65.7 °F 49.6 °F 29.76 in Calm     56 % 0.00 in
09:15 66.3 °F 48.7 °F 29.76 in WNW 1.2 mph   53 % 0.00 in
09:20 67.1 °F 49.4 °F 29.76 in Calm     53 % 0.00 in
09:25 68.3 °F 48.9 °F 29.76 in Calm     50 % 0.00 in
09:30 69.4 °F 48.3 °F 29.76 in ESE 1.2 mph 1.2 mph 47 % 0.00 in
09:35 69.5 °F 47.8 °F 29.77 in NW 1.2 mph 1.2 mph 46 % 0.00 in
09:41 69.7 °F 49.1 °F 29.77 in Calm   0.1 mph 48 % 0.00 in
09:46 70.4 °F 48.6 °F 29.77 in South 1.2 mph   46 % 0.00 in
09:51 71.0 °F 49.2 °F 29.77 in SE 1.2 mph 1.2 mph 46 % 0.00 in
09:56 70.8 °F 48.4 °F 29.77 in West 1.2 mph   45 % 0.00 in
10:01 71.0 °F 49.7 °F 29.77 in WSW 1.2 mph   47 % 0.00 in
10:06 72.0 °F 48.9 °F 29.77 in SSE 1.2 mph 1.2 mph 44 % 0.00 in
10:11 72.6 °F 50.0 °F 29.77 in SE 1.2 mph 1.2 mph 45 % 0.00 in
10:16 73.2 °F 48.1 °F 29.77 in SE 2.3 mph 2.3 mph 41 % 0.00 in
10:26 73.8 °F 46.6 °F 29.77 in NW 1.2 mph   38 % 0.00 in
10:31 74.0 °F 47.5 °F 29.76 in WNW 1.2 mph 1.2 mph 39 % 0.00 in
10:36 74.3 °F 49.7 °F 29.76 in SSE 2.3 mph 2.3 mph 42 % 0.00 in
10:46 75.4 °F 51.3 °F 29.76 in SE 1.2 mph   43 % 0.00 in
10:51 75.8 °F 49.1 °F 29.76 in NW 3.5 mph 3.5 mph 39 % 0.00 in
10:56 75.9 °F 49.2 °F 29.77 in Calm     39 % 0.00 in
11:01 76.2 °F 50.8 °F 29.77 in Calm     41 % 0.00 in
11:06 76.9 °F 50.7 °F 29.77 in ESE 1.2 mph 1.2 mph 40 % 0.00 in
11:11 77.1 °F 50.2 °F 29.77 in Calm     39 % 0.00 in
11:16 77.0 °F 49.4 °F 29.77 in NW 1.2 mph 1.2 mph 38 % 0.00 in
11:21 76.9 °F 50.7 °F 29.77 in Calm     40 % 0.00 in
11:26 77.4 °F 51.2 °F 29.77 in West 2.0 mph 2.0 mph 40 % 0.00 in
11:31 77.2 °F 51.7 °F 29.77 in North 1.2 mph 1.2 mph 41 % 0.00 in
11:36 77.5 °F 52.6 °F 29.77 in WNW 1.2 mph 1.2 mph 42 % 0.00 in
11:41 77.5 °F 52.6 °F 29.76 in NW 3.5 mph 3.5 mph 42 % 0.00 in
11:46 77.6 °F 52.0 °F 29.76 in NNE 1.2 mph 1.2 mph 41 % 0.00 in
11:47 77.7 °F 52.8 °F 29.76 in NW 1.2 mph 1.2 mph 42 % 0.00 in
11:52 77.8 °F 51.5 °F 29.76 in NW 3.0 mph 3.0 mph 40 % 0.00 in
11:57 77.9 °F 52.3 °F 29.76 in Calm   0.3 mph 41 % 0.00 in
12:02 78.3 °F 51.3 °F 29.75 in Calm   0.6 mph 39 % 0.00 in
12:07 78.7 °F 50.2 °F 29.75 in North 2.3 mph 2.3 mph 37 % 0.00 in
12:12 79.1 °F 49.8 °F 29.75 in West 1.2 mph 1.2 mph 36 % 0.00 in
12:17 79.3 °F 50.8 °F 29.75 in NE 1.0 mph 1.0 mph 37 % 0.00 in
12:22 79.4 °F 49.4 °F 29.75 in East 2.3 mph 2.3 mph 35 % 0.00 in
12:30 79.7 °F 50.4 °F 29.74 in NW 1.2 mph 1.2 mph 36 % 0.00 in
12:35 79.8 °F 50.5 °F 29.74 in WNW 1.2 mph 1.2 mph 36 % 0.00 in
12:40 80.1 °F 51.5 °F 29.74 in WSW 1.2 mph 1.2 mph 37 % 0.00 in
12:45 80.5 °F 51.8 °F 29.74 in WNW 3.5 mph 3.5 mph 37 % 0.00 in
12:50 81.0 °F 51.5 °F 29.73 in Calm     36 % 0.00 in
12:55 81.3 °F 52.5 °F 29.73 in NW 2.0 mph 2.0 mph 37 % 0.00 in
13:00 81.4 °F 51.9 °F 29.73 in WNW 1.2 mph 1.3 mph 36 % 0.00 in
13:05 81.4 °F 51.1 °F 29.73 in North 3.5 mph 3.5 mph 35 % 0.00 in
13:10 81.6 °F 50.5 °F 29.73 in NNW 1.2 mph 1.2 mph 34 % 0.00 in
13:15 81.6 °F 49.7 °F 29.72 in WNW 1.2 mph 1.2 mph 33 % 0.00 in
13:17 81.7 °F 49.8 °F 29.72 in West 2.3 mph 2.3 mph 33 % 0.00 in
13:22 82.0 °F 52.4 °F 29.72 in NNW 1.2 mph 1.2 mph 36 % 0.00 in
13:27 82.5 °F 50.5 °F 29.72 in WSW 1.2 mph 1.2 mph 33 % 0.00 in
13:32 82.7 °F 49.8 °F 29.72 in NW 1.2 mph 1.2 mph 32 % 0.00 in
13:37 82.5 °F 49.7 °F 29.71 in NE 3.5 mph 3.5 mph 32 % 0.00 in
13:42 82.6 °F 48.0 °F 29.71 in West 1.2 mph 1.2 mph 30 % 0.00 in
13:47 82.4 °F 48.7 °F 29.70 in NW 2.3 mph 2.3 mph 31 % 0.00 in
13:52 82.8 °F 50.8 °F 29.70 in NNW 3.5 mph 3.5 mph 33 % 0.00 in
13:57 82.8 °F 49.1 °F 29.70 in WNW 2.3 mph 2.3 mph 31 % 0.00 in
14:02 83.2 °F 51.1 °F 29.70 in West 1.2 mph 1.2 mph 33 % 0.00 in
14:07 83.4 °F 50.4 °F 29.70 in North 1.2 mph 1.2 mph 32 % 0.00 in
14:12 83.4 °F 48.7 °F 29.70 in NNE 2.3 mph 2.3 mph 30 % 0.00 in
14:17 83.6 °F 51.5 °F 29.70 in NW 2.3 mph 2.3 mph 33 % 0.00 in
14:27 83.0 °F 49.2 °F 29.70 in NW 3.5 mph 3.5 mph 31 % 0.00 in
14:32 82.8 °F 48.2 °F 29.70 in NW 3.5 mph 3.5 mph 30 % 0.00 in
14:37 82.9 °F 49.2 °F 29.70 in NW 1.2 mph 1.2 mph 31 % 0.00 in
14:42 83.4 °F 49.6 °F 29.69 in West 2.0 mph 2.0 mph 31 % 0.00 in
14:47 83.6 °F 50.6 °F 29.69 in NNW 2.3 mph 2.3 mph 32 % 0.00 in
14:52 83.5 °F 51.4 °F 29.69 in NW 3.5 mph 3.5 mph 33 % 0.00 in
14:57 83.3 °F 51.2 °F 29.69 in NW 2.3 mph 2.3 mph 33 % 0.00 in
15:02 83.2 °F 51.9 °F 29.69 in West 2.3 mph 2.3 mph 34 % 0.00 in
15:07 83.3 °F 51.2 °F 29.69 in WNW 3.5 mph 3.5 mph 33 % 0.00 in
15:12 83.1 °F 50.2 °F 29.69 in NW 3.5 mph 3.5 mph 32 % 0.00 in
15:17 83.0 °F 50.1 °F 29.69 in NNE 2.3 mph 2.3 mph 32 % 0.00 in
15:22 83.1 °F 50.2 °F 29.69 in WNW 2.3 mph 2.3 mph 32 % 0.00 in
15:33 83.0 °F 50.1 °F 29.69 in WNW 3.5 mph 3.5 mph 32 % 0.00 in
15:38 83.0 °F 49.2 °F 29.69 in West 3.5 mph 3.5 mph 31 % 0.00 in
15:43 83.1 °F 50.2 °F 29.69 in NW 4.0 mph 4.0 mph 32 % 0.00 in
15:48 83.0 °F 50.9 °F 29.69 in WNW 2.3 mph 2.3 mph 33 % 0.00 in
15:53 83.1 °F 50.2 °F 29.69 in NW 3.5 mph 3.5 mph 32 % 0.00 in
16:03 82.8 °F 49.9 °F 29.68 in NW 1.2 mph 1.2 mph 32 % 0.00 in
16:08 82.7 °F 48.1 °F 29.68 in WNW 4.6 mph 4.6 mph 30 % 0.00 in
16:13 82.6 °F 48.9 °F 29.68 in NW 2.3 mph 2.3 mph 31 % 0.00 in
16:18 82.6 °F 49.7 °F 29.68 in NW 3.5 mph 3.5 mph 32 % 0.00 in
16:23 82.5 °F 48.8 °F 29.68 in WNW 3.5 mph 3.5 mph 31 % 0.00 in
16:28 82.2 °F 50.2 °F 29.69 in WNW 3.5 mph 3.5 mph 33 % 0.00 in
16:33 82.0 °F 51.6 °F 29.68 in WNW 3.0 mph 3.0 mph 35 % 0.00 in
16:38 81.9 °F 50.8 °F 29.69 in WNW 4.0 mph 4.0 mph 34 % 0.00 in
16:43 81.7 °F 50.6 °F 29.68 in NW 3.5 mph 3.5 mph 34 % 0.00 in
16:48 81.6 °F 52.1 °F 29.68 in North 4.0 mph 4.0 mph 36 % 0.00 in
16:53 81.4 °F 51.1 °F 29.68 in WNW 4.6 mph 4.6 mph 35 % 0.00 in
16:58 81.3 °F 51.0 °F 29.69 in North 4.0 mph 4.0 mph 35 % 0.00 in
17:03 81.1 °F 50.9 °F 29.68 in NW 2.3 mph 2.3 mph 35 % 0.00 in
17:08 80.9 °F 51.4 °F 29.68 in NW 3.0 mph 3.0 mph 36 % 0.00 in
17:13 80.7 °F 51.3 °F 29.69 in NNW 2.3 mph 2.3 mph 36 % 0.00 in
17:18 80.5 °F 51.1 °F 29.68 in WNW 3.5 mph 3.5 mph 36 % 0.00 in
17:23 80.3 °F 50.9 °F 29.68 in WSW 3.5 mph 3.5 mph 36 % 0.00 in
17:28 80.1 °F 51.5 °F 29.69 in NNW 3.0 mph 3.0 mph 37 % 0.00 in
17:33 79.7 °F 51.8 °F 29.69 in WNW 3.5 mph 3.5 mph 38 % 0.00 in
17:38 79.5 °F 51.7 °F 29.69 in NW 2.3 mph 2.3 mph 38 % 0.00 in
17:43 79.1 °F 51.3 °F 29.69 in West 2.0 mph 2.0 mph 38 % 0.00 in
17:48 78.7 °F 51.7 °F 29.69 in NW 3.0 mph 3.0 mph 39 % 0.00 in
17:53 78.4 °F 51.4 °F 29.69 in WNW 2.3 mph 2.3 mph 39 % 0.00 in
17:58 78.0 °F 51.7 °F 29.69 in WNW 1.2 mph 1.2 mph 40 % 0.00 in
18:00 77.9 °F 51.6 °F 29.69 in WNW 1.2 mph 1.2 mph 40 % 0.00 in
18:03 77.9 °F 51.6 °F 29.69 in WNW 1.2 mph 1.2 mph 40 % 0.00 in
18:08 77.9 °F 51.6 °F 29.69 in WNW 1.2 mph 1.2 mph 40 % 0.00 in
22:55 58.9 °F 50.3 °F 29.77 in Calm     73 % 0.00 in
23:00 58.7 °F 50.4 °F 29.77 in Calm     74 % 0.00 in
23:05 58.6 °F 50.0 °F 29.77 in Calm     73 % 0.00 in
23:10 58.5 °F 50.2 °F 29.77 in Calm     74 % 0.00 in
23:12 58.5 °F 50.2 °F 29.77 in Calm     74 % 0.00 in
23:17 58.6 °F 50.0 °F 29.77 in Calm     73 % 0.00 in
23:22 58.8 °F 49.8 °F 29.77 in Calm     72 % 0.00 in
23:27 58.8 °F 50.2 °F 29.77 in Calm     73 % 0.00 in
23:32 58.7 °F 50.1 °F 29.78 in Calm     73 % 0.00 in
23:42 58.0 °F 49.8 °F 29.78 in Calm     74 % 0.00 in
23:47 57.8 °F 49.6 °F 29.78 in Calm     74 % 0.00 in
23:52 57.5 °F 50.0 °F 29.78 in Calm     76 % 0.00 in
23:57 57.2 °F 49.3 °F 29.78 in Calm     75 % 0.00 in
Park Place, Exeter, Tulare County, California, USA
Compliments of Weather Underground - 2.5 mb